createdAt,value
2022-10-19T00:01:13.018Z,101155.00
2022-10-19T00:03:41.777Z,101145.06
2022-10-19T00:06:15.234Z,101147.31
2022-10-19T00:08:43.483Z,101128.66
2022-10-19T00:11:11.858Z,101138.13
2022-10-19T00:13:39.490Z,101114.53
2022-10-19T00:16:15.336Z,101130.06
2022-10-19T00:18:43.858Z,101104.53
2022-10-19T00:21:13.550Z,101095.34
2022-10-19T00:23:40.831Z,101117.28
2022-10-19T00:26:08.382Z,101102.56
2022-10-19T00:28:37.014Z,101102.56
2022-10-19T00:31:11.183Z,101107.88
2022-10-19T00:33:38.576Z,101093.88
2022-10-19T00:36:06.606Z,101095.31
2022-10-19T00:38:33.781Z,101091.09
2022-10-19T00:41:02.508Z,101091.34
2022-10-19T00:43:31.527Z,101092.25
2022-10-19T00:45:58.825Z,101088.84
2022-10-19T00:48:33.371Z,101085.22
2022-10-19T00:51:01.011Z,101089.09
2022-10-19T00:53:31.484Z,101073.81
2022-10-19T00:56:04.009Z,101084.88
2022-10-19T00:58:31.360Z,101078.44
2022-10-19T01:01:03.717Z,101063.06
2022-10-19T01:03:31.370Z,101054.28
2022-10-19T01:05:58.525Z,101065.63
2022-10-19T01:08:26.269Z,101065.09
2022-10-19T01:11:21.917Z,101063.88
2022-10-19T01:14:14.799Z,101048.88
2022-10-19T01:16:54.777Z,101037.81
2022-10-19T01:20:02.082Z,101044.72
2022-10-19T01:22:49.301Z,101041.16
2022-10-19T01:25:36.012Z,101027.69
2022-10-19T01:28:31.661Z,101019.91
2022-10-19T01:31:09.528Z,101023.59
2022-10-19T01:33:51.792Z,101018.31
2022-10-19T01:36:37.811Z,101025.03
2022-10-19T01:39:15.624Z,101015.09
2022-10-19T01:42:20.254Z,101019.75
2022-10-19T01:44:54.489Z,101007.25
2022-10-19T01:47:37.404Z,100995.81
2022-10-19T01:50:19.551Z,100992.22
2022-10-19T01:52:49.815Z,100994.53
2022-10-19T01:55:19.358Z,101002.06
2022-10-19T01:57:51.050Z,100993.44
2022-10-19T02:00:20.559Z,100974.50
2022-10-19T02:02:51.929Z,100994.19
2022-10-19T02:05:22.534Z,100966.97
2022-10-19T02:07:53.432Z,100983.94
2022-10-19T02:10:22.029Z,100976.69
2022-10-19T02:12:50.352Z,100970.72
2022-10-19T02:15:21.360Z,100971.63
2022-10-19T02:17:53.141Z,100956.03
2022-10-19T02:20:21.065Z,100966.88
2022-10-19T02:22:48.306Z,100958.94
2022-10-19T02:25:16.080Z,100972.03
2022-10-19T02:27:44.442Z,100974.34
2022-10-19T02:30:14.956Z,100966.91
2022-10-19T02:32:43.787Z,100960.00
2022-10-19T02:35:14.054Z,100953.97
2022-10-19T02:37:42.179Z,100970.06
2022-10-19T02:40:10.607Z,100961.09
2022-10-19T02:42:51.409Z,100952.16
2022-10-19T02:45:31.729Z,100945.78
2022-10-19T02:48:03.397Z,100950.50
2022-10-19T02:50:30.692Z,100930.69
2022-10-19T02:53:01.507Z,100937.66
2022-10-19T02:55:31.005Z,100934.41
2022-10-19T02:57:58.443Z,100936.78
2022-10-19T03:00:25.683Z,100945.63
2022-10-19T03:02:53.133Z,100926.91
2022-10-19T03:05:21.439Z,100937.91
2022-10-19T03:07:48.585Z,100935.09
2022-10-19T03:10:15.904Z,100923.91
2022-10-19T03:12:43.062Z,100919.75
2022-10-19T03:15:14.979Z,100916.59
2022-10-19T03:17:42.595Z,100924.78
2022-10-19T03:20:11.136Z,100913.25
2022-10-19T03:22:38.695Z,100912.00
2022-10-19T03:25:06.686Z,100915.28
2022-10-19T03:27:34.096Z,100901.94
2022-10-19T03:30:01.481Z,100901.94
2022-10-19T03:32:30.467Z,100904.84
2022-10-19T03:34:57.726Z,100886.03
2022-10-19T03:37:24.922Z,100893.44
2022-10-19T03:39:53.000Z,100890.44
2022-10-19T03:42:20.300Z,100886.81
2022-10-19T03:44:47.682Z,100882.25
2022-10-19T03:47:14.853Z,100882.84
2022-10-19T03:49:43.799Z,100878.38
2022-10-19T03:52:10.945Z,100870.53
2022-10-19T03:54:38.145Z,100873.19
2022-10-19T03:57:06.944Z,100869.53
2022-10-19T03:59:34.242Z,100849.94
2022-10-19T04:02:01.567Z,100855.16
2022-10-19T04:04:28.813Z,100850.75
2022-10-19T04:06:55.937Z,100844.81
2022-10-19T04:09:24.026Z,100845.31
2022-10-19T04:11:51.358Z,100847.91
2022-10-19T04:14:31.701Z,100848.72
2022-10-19T04:17:06.357Z,100854.06
2022-10-19T04:19:33.454Z,100839.09
2022-10-19T04:22:01.324Z,100825.63
2022-10-19T04:24:30.911Z,100831.59
2022-10-19T04:26:58.101Z,100806.25
2022-10-19T04:29:29.748Z,100840.16
2022-10-19T04:31:58.423Z,100832.22
2022-10-19T04:34:25.976Z,100852.88
2022-10-19T04:36:53.818Z,100844.28
2022-10-19T04:39:20.960Z,100823.19
2022-10-19T04:41:48.243Z,100826.25
2022-10-19T04:44:15.778Z,100818.19
2022-10-19T04:46:43.128Z,100810.63
2022-10-19T04:49:10.370Z,100829.59
2022-10-19T04:51:38.000Z,100813.72
2022-10-19T04:54:05.264Z,100826.69
2022-10-19T04:56:32.755Z,100818.63
2022-10-19T04:59:01.259Z,100832.16
2022-10-19T05:01:30.612Z,100820.94
2022-10-19T05:04:03.929Z,100829.53
2022-10-19T05:06:32.575Z,100825.06
2022-10-19T05:09:00.646Z,100809.44
2022-10-19T05:11:28.233Z,100822.78
2022-10-19T05:13:57.282Z,100809.09
2022-10-19T05:16:25.269Z,100815.97
2022-10-19T05:18:59.240Z,100807.19
2022-10-19T05:21:28.710Z,100816.88
2022-10-19T05:23:57.050Z,100813.06
2022-10-19T05:26:26.985Z,100810.38
2022-10-19T05:28:57.162Z,100797.16
2022-10-19T05:31:30.946Z,100803.13
2022-10-19T05:33:58.914Z,100802.13
2022-10-19T05:36:27.637Z,100806.22
2022-10-19T05:38:57.407Z,100801.16
2022-10-19T05:41:26.432Z,100795.69
2022-10-19T05:43:59.388Z,100770.34
2022-10-19T05:46:28.209Z,100785.19
2022-10-19T05:48:57.080Z,100783.88
2022-10-19T05:51:25.552Z,100787.41
2022-10-19T05:53:56.999Z,100772.06
2022-10-19T05:56:29.440Z,100773.06
2022-10-19T05:58:58.967Z,100786.78
2022-10-19T06:01:28.202Z,100769.38
2022-10-19T06:03:57.108Z,100765.06
2022-10-19T06:06:25.369Z,100763.31
2022-10-19T06:08:54.031Z,100761.78
2022-10-19T06:11:41.977Z,100757.28
2022-10-19T06:14:13.302Z,100759.06
2022-10-19T06:16:41.030Z,100749.28
2022-10-19T06:19:08.247Z,100744.69
2022-10-19T06:21:35.558Z,100756.91
2022-10-19T06:24:05.972Z,100739.47
2022-10-19T06:26:34.651Z,100739.34
2022-10-19T06:29:02.947Z,100722.94
2022-10-19T06:31:33.092Z,100720.03
2022-10-19T06:34:01.119Z,100739.31
2022-10-19T06:36:30.996Z,100737.03
2022-10-19T06:39:00.132Z,100732.34
2022-10-19T06:41:27.795Z,100727.75
2022-10-19T06:43:55.749Z,100718.44
2022-10-19T06:46:24.970Z,100710.22
2022-10-19T06:49:01.394Z,100703.22
2022-10-19T06:51:31.113Z,100709.06
2022-10-19T06:53:58.283Z,100701.34
2022-10-19T06:56:27.068Z,100701.91
2022-10-19T06:58:55.298Z,100700.59
2022-10-19T07:01:24.838Z,100709.44
2022-10-19T07:03:52.761Z,100701.34
2022-10-19T07:06:21.251Z,100696.88
2022-10-19T07:08:49.017Z,100699.03
2022-10-19T07:11:19.787Z,100691.19
2022-10-19T07:13:47.307Z,100689.84
2022-10-19T07:16:20.553Z,100670.38
2022-10-19T07:18:52.151Z,100676.00
2022-10-19T07:21:21.069Z,100678.03
2022-10-19T07:23:48.739Z,100678.50
2022-10-19T07:26:28.538Z,100670.25
2022-10-19T07:28:57.670Z,100673.06
2022-10-19T07:31:26.236Z,100666.13
2022-10-19T07:33:55.859Z,100652.03
2022-10-19T07:36:24.134Z,100647.91
2022-10-19T07:38:51.984Z,100646.75
2022-10-19T07:41:21.236Z,100646.53
2022-10-19T07:43:49.169Z,100644.88
2022-10-19T07:46:25.938Z,100632.63
2022-10-19T07:48:54.230Z,100629.63
2022-10-19T07:51:22.496Z,100632.53
2022-10-19T07:53:49.998Z,100607.84
2022-10-19T07:56:22.631Z,100615.28
2022-10-19T07:58:51.936Z,100618.53
2022-10-19T08:01:21.671Z,100614.81
2022-10-19T08:06:39.977Z,100597.38
2022-10-19T08:09:07.398Z,100579.16
2022-10-19T08:11:36.748Z,100591.84
2022-10-19T08:14:04.622Z,100587.88
2022-10-19T08:16:40.451Z,100590.75
2022-10-19T08:19:14.996Z,100582.56
2022-10-19T08:21:45.398Z,100572.69
2022-10-19T08:24:14.711Z,100580.38
2022-10-19T08:26:43.489Z,100568.25
2022-10-19T08:29:13.669Z,100560.38
2022-10-19T08:31:42.469Z,100542.91
2022-10-19T08:34:10.216Z,100547.41
2022-10-19T08:36:38.180Z,100552.38
2022-10-19T08:39:07.955Z,100528.34
2022-10-19T08:42:04.960Z,100531.34
2022-10-19T08:44:34.991Z,100534.53
2022-10-19T08:47:26.665Z,100520.66
2022-10-19T08:49:55.233Z,100523.38
2022-10-19T08:52:34.502Z,100513.16
2022-10-19T08:55:15.138Z,100478.22
2022-10-19T08:58:08.092Z,100501.38
2022-10-19T09:01:10.529Z,100492.56
2022-10-19T09:03:56.372Z,100494.03
2022-10-19T09:06:32.593Z,100487.03
2022-10-19T09:09:00.227Z,100478.50
2022-10-19T09:11:38.510Z,100479.41
2022-10-19T09:14:14.709Z,100469.63
2022-10-19T09:16:42.892Z,100455.59
2022-10-19T09:19:24.139Z,100461.00
2022-10-19T09:21:58.219Z,100460.59
2022-10-19T09:24:30.725Z,100454.47
2022-10-19T09:27:00.733Z,100453.75
2022-10-19T09:29:47.842Z,100437.00
2022-10-19T09:32:22.573Z,100436.28
2022-10-19T09:35:02.466Z,100440.03
2022-10-19T09:37:32.907Z,100443.53
2022-10-19T09:40:00.375Z,100433.19
2022-10-19T09:42:37.192Z,100422.13
2022-10-19T09:45:30.004Z,100426.38
2022-10-19T09:48:06.933Z,100431.41
2022-10-19T09:50:43.816Z,100421.44
2022-10-19T09:53:20.958Z,100424.59
2022-10-19T09:55:57.516Z,100409.94
2022-10-19T09:58:30.569Z,100409.16
2022-10-19T10:01:01.570Z,100396.97
2022-10-19T10:03:35.310Z,100405.66
2022-10-19T10:06:08.589Z,100395.06
2022-10-19T10:08:45.576Z,100380.00
2022-10-19T10:11:25.473Z,100374.69
2022-10-19T10:13:54.942Z,100370.97
2022-10-19T10:16:24.801Z,100376.44
2022-10-19T10:19:12.214Z,100360.22
2022-10-19T10:21:55.997Z,100359.41
2022-10-19T10:24:34.400Z,100346.34
2022-10-19T10:27:05.236Z,100328.09
2022-10-19T10:29:37.792Z,100334.13
2022-10-19T10:32:13.819Z,100329.34
2022-10-19T10:34:51.787Z,100338.03
2022-10-19T10:37:23.401Z,100331.53
2022-10-19T10:39:59.090Z,100325.25
2022-10-19T10:42:44.646Z,100317.81
2022-10-19T10:45:36.993Z,100306.19
2022-10-19T10:50:53.159Z,100298.91
2022-10-19T10:53:37.888Z,100301.19
2022-10-19T10:56:24.655Z,100293.22
2022-10-19T10:59:07.843Z,100285.28
2022-10-19T11:01:42.404Z,100281.53
2022-10-19T11:04:20.739Z,100265.56
2022-10-19T11:06:55.419Z,100267.22
2022-10-19T11:09:26.239Z,100267.06
2022-10-19T11:11:56.305Z,100261.06
2022-10-19T11:14:51.111Z,100253.75
2022-10-19T11:17:21.152Z,100247.53
2022-10-19T11:19:51.542Z,100241.53
2022-10-19T11:22:37.620Z,100234.66
2022-10-19T11:25:23.966Z,100235.66
2022-10-19T11:28:13.222Z,100220.84
2022-10-19T11:31:14.843Z,100206.09
2022-10-19T11:34:16.142Z,100210.53
2022-10-19T11:37:03.950Z,100196.50
2022-10-19T11:39:49.803Z,100196.34
2022-10-19T11:42:27.634Z,100191.19
2022-10-19T11:45:20.281Z,100189.22
2022-10-19T11:48:15.221Z,100182.72
2022-10-19T11:50:58.618Z,100168.16
2022-10-19T11:53:31.285Z,100186.94
2022-10-19T11:56:07.969Z,100188.06
2022-10-19T11:58:54.547Z,100174.63
2022-10-19T12:01:33.639Z,100179.00
2022-10-19T12:04:25.295Z,100183.91
2022-10-19T12:07:12.941Z,100182.50
2022-10-19T12:09:51.972Z,100186.38
2022-10-19T12:12:42.957Z,100178.22
2022-10-19T12:15:30.143Z,100179.16
2022-10-19T12:18:04.335Z,100162.38
2022-10-19T12:20:43.153Z,100165.22
2022-10-19T12:23:20.104Z,100165.00
2022-10-19T12:25:49.521Z,100171.31
2022-10-19T12:28:27.006Z,100159.09
2022-10-19T12:30:55.987Z,100166.25
2022-10-19T12:34:08.939Z,100167.59
2022-10-19T12:37:03.571Z,100157.84
2022-10-19T12:40:01.009Z,100157.38
2022-10-19T12:42:57.845Z,100153.75
2022-10-19T12:45:35.375Z,100153.38
2022-10-19T12:48:08.802Z,100158.06
2022-10-19T12:51:07.806Z,100152.00
2022-10-19T12:53:42.966Z,100140.94
2022-10-19T12:56:10.015Z,100138.75
2022-10-19T12:58:47.760Z,100139.88
2022-10-19T13:01:36.510Z,100134.50
2022-10-19T13:04:23.797Z,100135.59
2022-10-19T13:06:57.186Z,100130.19
2022-10-19T13:09:32.909Z,100120.78
2022-10-19T13:12:19.405Z,100130.91
2022-10-19T13:14:55.276Z,100117.06
2022-10-19T13:17:35.095Z,100123.41
2022-10-19T13:20:14.987Z,100122.28
2022-10-19T13:22:49.759Z,100120.94
2022-10-19T13:25:17.756Z,100116.31
2022-10-19T13:27:47.411Z,100113.72
2022-10-19T13:30:36.542Z,100120.47
2022-10-19T13:33:33.258Z,100107.44
2022-10-19T13:36:00.869Z,100103.47
2022-10-19T13:38:29.449Z,100103.34
2022-10-19T13:41:15.549Z,100097.34
2022-10-19T13:44:18.375Z,100096.88
2022-10-19T13:47:03.413Z,100095.97
2022-10-19T13:49:50.710Z,100088.97
2022-10-19T13:52:40.298Z,100083.66
2022-10-19T13:55:13.861Z,100082.69
2022-10-19T13:57:41.851Z,100076.50
2022-10-19T14:00:25.368Z,100074.03
2022-10-19T14:03:30.201Z,100071.13
2022-10-19T14:06:12.510Z,100070.56
2022-10-19T14:08:51.821Z,100067.22
2022-10-19T14:11:20.750Z,100063.84
2022-10-19T14:14:23.873Z,100057.19
2022-10-19T14:16:59.811Z,100053.75
2022-10-19T14:19:31.613Z,100053.66
2022-10-19T14:22:01.315Z,100027.94
2022-10-19T14:24:34.963Z,100053.47
2022-10-19T14:27:06.571Z,100065.47
2022-10-19T14:29:49.341Z,100047.97
2022-10-19T14:32:19.057Z,100045.22
2022-10-19T14:34:48.459Z,100045.28
2022-10-19T14:37:22.171Z,100056.22
2022-10-19T14:40:01.138Z,100042.75
2022-10-19T14:42:43.063Z,100037.63
2022-10-19T14:45:14.772Z,100047.97
2022-10-19T14:48:05.880Z,100046.09
2022-10-19T14:53:21.483Z,100049.16
2022-10-19T14:55:52.453Z,100041.47
2022-10-19T14:58:22.485Z,100053.69
2022-10-19T15:00:52.275Z,100046.91
2022-10-19T15:03:31.010Z,100049.84
2022-10-19T15:06:07.337Z,100058.09
2022-10-19T15:08:43.794Z,100049.31
2022-10-19T15:11:40.919Z,100058.25
2022-10-19T15:14:10.172Z,100049.44
2022-10-19T15:16:54.363Z,100055.19
2022-10-19T15:19:34.892Z,100031.50
2022-10-19T15:22:22.505Z,100052.03
2022-10-19T15:25:02.803Z,100054.53
2022-10-19T15:27:38.004Z,100045.50
2022-10-19T15:30:28.060Z,100035.53
2022-10-19T15:33:00.794Z,100036.47
2022-10-19T15:35:31.197Z,100049.97
2022-10-19T15:38:25.200Z,100051.28
2022-10-19T15:40:58.860Z,100035.41
2022-10-19T15:43:46.312Z,100045.28
2022-10-19T15:46:28.560Z,100038.38
2022-10-19T15:48:57.731Z,100038.28
2022-10-19T15:51:28.020Z,100039.56
2022-10-19T15:54:01.148Z,100027.34
2022-10-19T15:56:31.796Z,100006.13
2022-10-19T15:59:01.549Z,100012.81
2022-10-19T16:01:33.867Z,100027.72
2022-10-19T16:04:01.439Z,100029.38
2022-10-19T16:06:31.952Z,100023.63
2022-10-19T16:09:00.767Z,100014.81
2022-10-19T16:11:30.258Z,100000.59
2022-10-19T16:13:57.450Z,100014.69
2022-10-19T16:16:31.763Z,100004.69
2022-10-19T16:19:00.563Z,99993.06
2022-10-19T16:21:35.072Z,100014.66
2022-10-19T16:24:02.853Z,99995.41
2022-10-19T16:26:32.353Z,99983.66
2022-10-19T16:29:01.545Z,100003.84
2022-10-19T16:31:29.167Z,99985.38
2022-10-19T16:33:56.501Z,99991.22
2022-10-19T16:36:24.719Z,99976.19
2022-10-19T16:38:52.247Z,99978.53
2022-10-19T16:41:19.870Z,99979.53
2022-10-19T16:43:48.624Z,99965.41
2022-10-19T16:46:16.140Z,99984.38
2022-10-19T16:48:43.630Z,99987.53
2022-10-19T16:51:36.704Z,99995.28
2022-10-19T16:54:06.036Z,100002.34
2022-10-19T16:56:35.520Z,99990.81
2022-10-19T16:59:06.305Z,100001.56
2022-10-19T17:01:35.086Z,100011.09
2022-10-19T17:04:02.372Z,99999.50
2022-10-19T17:06:30.994Z,100000.44
2022-10-19T17:09:37.039Z,99998.00
2022-10-19T17:11:47.044Z,99998.25
2022-10-19T17:14:14.567Z,99988.72
2022-10-19T17:16:42.660Z,99995.16
2022-10-19T17:19:11.250Z,99991.78
2022-10-19T17:21:39.494Z,99992.81
2022-10-19T17:24:09.262Z,99988.34
2022-10-19T17:26:40.213Z,99989.34
2022-10-19T17:29:08.488Z,99994.66
2022-10-19T17:31:37.010Z,99975.56
2022-10-19T17:34:04.789Z,99990.09
2022-10-19T17:36:36.140Z,99989.09
2022-10-19T17:39:11.549Z,99999.81
2022-10-19T17:41:39.160Z,99969.69
2022-10-19T17:44:06.401Z,99979.56
2022-10-19T17:46:35.275Z,99991.25
2022-10-19T17:49:04.094Z,99997.66
2022-10-19T17:51:33.829Z,99982.69
2022-10-19T17:54:10.064Z,99989.75
2022-10-19T17:56:38.403Z,99972.16
2022-10-19T17:59:08.047Z,99957.50
2022-10-19T18:01:35.715Z,99967.69
2022-10-19T18:04:03.753Z,99947.94
2022-10-19T18:06:33.670Z,99959.94
2022-10-19T18:09:03.664Z,99964.88
2022-10-19T18:11:45.033Z,99974.09
2022-10-19T18:14:13.610Z,99967.47
2022-10-19T18:16:46.483Z,99968.28
2022-10-19T18:19:15.842Z,99962.31
2022-10-19T18:21:45.445Z,99953.28
2022-10-19T18:24:24.863Z,99955.56
2022-10-19T18:26:52.893Z,99953.09
2022-10-19T18:29:23.405Z,99957.47
2022-10-19T18:31:53.164Z,99935.34
2022-10-19T18:34:23.078Z,99944.25
2022-10-19T18:36:50.593Z,99938.94
2022-10-19T18:39:18.294Z,99945.34
2022-10-19T18:41:45.650Z,99924.22
2022-10-19T18:44:13.697Z,99940.28
2022-10-19T18:46:41.178Z,99931.09
2022-10-19T18:49:09.810Z,99936.31
2022-10-19T18:51:37.155Z,99930.31
2022-10-19T18:54:07.399Z,99937.28
2022-10-19T18:56:36.894Z,99938.94
2022-10-19T18:59:13.194Z,99938.28
2022-10-19T19:01:40.670Z,99922.38
2022-10-19T19:04:09.642Z,99916.91
2022-10-19T19:06:40.202Z,99912.69
2022-10-19T19:09:11.217Z,99921.03
2022-10-19T19:11:41.276Z,99912.72
2022-10-19T19:14:16.626Z,99896.69
2022-10-19T19:16:45.113Z,99923.69
2022-10-19T19:19:14.744Z,99914.94
2022-10-19T19:21:44.556Z,99900.69
2022-10-19T19:24:22.455Z,99911.50
2022-10-19T19:26:53.133Z,99906.09
2022-10-19T19:29:22.912Z,99915.63
2022-10-19T19:31:53.084Z,99904.09
2022-10-19T19:34:21.052Z,99902.00
2022-10-19T19:36:48.965Z,99885.66
2022-10-19T19:39:19.499Z,99914.59
2022-10-19T19:41:48.179Z,99918.25
2022-10-19T19:44:16.099Z,99909.81
2022-10-19T19:46:43.352Z,99898.47
2022-10-19T19:49:10.908Z,99916.66
2022-10-19T19:51:38.582Z,99909.97
2022-10-19T19:54:06.163Z,99907.06
2022-10-19T19:56:34.402Z,99910.78
2022-10-19T19:59:05.986Z,99904.50
2022-10-19T20:01:34.400Z,99894.97
2022-10-19T20:06:30.435Z,99909.38
2022-10-19T20:08:57.931Z,99913.75
2022-10-19T20:11:26.910Z,99899.88
2022-10-19T20:13:54.807Z,99893.66
2022-10-19T20:16:29.026Z,99893.97
2022-10-19T20:19:15.166Z,99899.44
2022-10-19T20:21:42.855Z,99872.50
2022-10-19T20:24:10.903Z,99899.94
2022-10-19T20:26:38.258Z,99880.53
2022-10-19T20:29:05.815Z,99879.19
2022-10-19T20:31:39.491Z,99874.69
2022-10-19T20:34:09.550Z,99887.34
2022-10-19T20:36:37.700Z,99874.06
2022-10-19T20:39:06.077Z,99876.31
2022-10-19T20:41:33.403Z,99858.16
2022-10-19T20:44:01.031Z,99852.41
2022-10-19T20:46:30.044Z,99859.34
2022-10-19T20:49:00.103Z,99869.94
2022-10-19T20:51:32.988Z,99869.75
2022-10-19T20:54:02.862Z,99866.13
2022-10-19T20:56:32.870Z,99863.31
2022-10-19T20:59:07.713Z,99857.69
2022-10-19T21:01:37.300Z,99841.53
2022-10-19T21:04:07.310Z,99851.91
2022-10-19T21:06:37.805Z,99843.69
2022-10-19T21:09:05.823Z,99844.09
2022-10-19T21:11:35.917Z,99840.34
2022-10-19T21:14:06.649Z,99845.75
2022-10-19T21:16:34.348Z,99831.31
2022-10-19T21:19:04.183Z,99844.78
2022-10-19T21:21:35.683Z,99840.72
2022-10-19T21:24:21.754Z,99844.16
2022-10-19T21:29:17.603Z,99842.31
2022-10-19T21:31:48.805Z,99852.72
2022-10-19T21:34:24.691Z,99839.28
2022-10-19T21:36:53.221Z,99845.66
2022-10-19T21:39:21.051Z,99835.53
2022-10-19T21:41:49.210Z,99837.03
2022-10-19T21:44:18.002Z,99832.00
2022-10-19T21:46:48.070Z,99841.88
2022-10-19T21:49:15.860Z,99837.72
2022-10-19T21:51:54.067Z,99846.59
2022-10-19T21:54:25.587Z,99850.03
2022-10-19T21:56:53.565Z,99840.44
2022-10-19T21:59:20.805Z,99836.06
2022-10-19T22:01:48.261Z,99823.06
2022-10-19T22:04:17.627Z,99835.53
2022-10-19T22:06:47.432Z,99839.28
2022-10-19T22:09:19.212Z,99844.78
2022-10-19T22:11:47.025Z,99837.84
2022-10-19T22:14:16.357Z,99839.97
2022-10-19T22:16:44.474Z,99846.75
2022-10-19T22:19:12.405Z,99833.47
2022-10-19T22:21:41.095Z,99855.84
2022-10-19T22:24:15.170Z,99835.91
2022-10-19T22:26:50.835Z,99853.09
2022-10-19T22:29:18.906Z,99853.03
2022-10-19T22:31:46.506Z,99842.53
2022-10-19T22:34:17.933Z,99846.97
2022-10-19T22:36:46.123Z,99845.66
2022-10-19T22:39:14.545Z,99845.97
2022-10-19T22:41:41.851Z,99834.41
2022-10-19T22:44:09.045Z,99838.06
2022-10-19T22:46:36.477Z,99842.31
2022-10-19T22:49:04.068Z,99831.94
2022-10-19T22:51:31.537Z,99829.66
2022-10-19T22:53:59.803Z,99831.78
2022-10-19T22:56:28.477Z,99829.50
2022-10-19T22:59:03.146Z,99828.50
2022-10-19T23:01:30.349Z,99824.88
2022-10-19T23:03:57.627Z,99810.19
2022-10-19T23:06:25.832Z,99822.09
2022-10-19T23:08:54.029Z,99824.91
2022-10-19T23:11:21.656Z,99818.13
2022-10-19T23:13:48.853Z,99812.13
2022-10-19T23:16:16.336Z,99821.03
2022-10-19T23:18:44.567Z,99816.78
2022-10-19T23:21:14.069Z,99816.28
2022-10-19T23:23:42.935Z,99823.81
2022-10-19T23:26:14.686Z,99809.78
2022-10-19T23:28:44.794Z,99818.00
2022-10-19T23:31:18.193Z,99803.50
2022-10-19T23:33:47.219Z,99816.16
2022-10-19T23:36:23.234Z,99816.88
2022-10-19T23:38:54.717Z,99794.59
2022-10-19T23:41:22.814Z,99800.28
2022-10-19T23:43:50.293Z,99806.41
2022-10-19T23:46:17.728Z,99781.53
2022-10-19T23:48:45.839Z,99799.13
2022-10-19T23:51:16.707Z,99787.88
2022-10-19T23:53:52.187Z,99793.50
2022-10-19T23:56:28.462Z,99794.25
2022-10-19T23:58:56.707Z,99791.69
